Time;durP1;ratioP1;P1;durP2;ratioP2;P2;SDS_P1;SDS_P2;PMS_P1;PMS_P2;Temp;Humidity;BMP_temperature;BMP_pressure;BME280_temperature;BME280_humidity;BME280_pressure;Samples;Min_cycle;Max_cycle;Signal;HPM_P1;HPM_P2
2022/11/27 00:02:02;;;;;;;39.13;19.33;;;;;;;2.34;87.43;95762.81;5080556;28;20593;-78
2022/11/27 00:04:27;;;;;;;39.73;19.17;;;;;;;2.37;87.77;95767.72;5080122;28;20174;-77
2022/11/27 00:06:53;;;;;;;40.97;18.20;;;;;;;2.32;88.45;95772.53;5080305;28;20616;-77
2022/11/27 00:09:19;;;;;;;39.47;18.13;;;;;;;2.38;88.99;95777.16;5088822;28;20181;-77
2022/11/27 00:11:45;;;;;;;35.77;18.57;;;;;;;2.21;89.64;95757.91;5091075;28;20238;-76
2022/11/27 00:14:13;;;;;;;33.93;17.67;;;;;;;2.35;89.68;95778.25;5090972;28;20577;-76
2022/11/27 00:16:39;;;;;;;33.33;17.40;;;;;;;2.42;89.23;95776.75;5090958;28;20185;-77
2022/11/27 00:19:04;;;;;;;35.53;17.47;;;;;;;2.12;88.93;95736.16;5090803;28;20262;-77
2022/11/27 00:21:33;;;;;;;35.57;16.47;;;;;;;2.38;88.63;95783.19;5081680;28;20182;-76
2022/11/27 00:24:00;;;;;;;29.13;14.73;;;;;;;2.43;88.91;95780.97;5070712;28;20236;-78
2022/11/27 00:26:27;;;;;;;24.53;12.47;;;;;;;2.43;88.65;95775.78;5070808;28;20189;-77
2022/11/27 00:28:53;;;;;;;28.53;13.37;;;;;;;2.44;88.92;95771.41;5090888;28;20207;-76
2022/11/27 00:31:27;;;;;;;26.80;14.17;;;;;;;2.46;88.98;95785.09;5076128;28;20185;-77
2022/11/27 00:33:57;;;;;;;24.60;12.60;;;;;;;2.47;88.96;95790.16;5072728;28;20569;-77
2022/11/27 00:36:23;;;;;;;29.17;14.03;;;;;;;2.50;88.67;95789.88;5074737;28;20265;-75
2022/11/27 00:38:48;;;;;;;27.93;12.60;;;;;;;2.46;88.67;95792.88;5084471;28;20177;-77
2022/11/27 00:41:17;;;;;;;25.13;13.03;;;;;;;2.45;88.71;95796.44;5095164;28;20230;-77
2022/11/27 00:43:42;;;;;;;26.70;13.23;;;;;;;2.42;88.66;95781.94;5086475;28;20178;-76
2022/11/27 00:46:08;;;;;;;27.27;12.77;;;;;;;2.50;88.68;95802.06;5074574;28;20233;-78
2022/11/27 00:48:34;;;;;;;26.50;12.63;;;;;;;2.26;88.78;95756.53;5074711;28;20719;-75
2022/11/27 00:51:01;;;;;;;27.83;14.00;;;;;;;2.51;88.77;95795.88;5092990;28;20242;-77
2022/11/27 00:53:27;;;;;;;29.37;14.03;;;;;;;2.45;89.12;95799.03;5094749;28;20576;-77
2022/11/27 00:55:54;;;;;;;27.50;13.37;;;;;;;2.38;88.52;95779.75;5094699;28;20612;-77
2022/11/27 00:58:20;;;;;;;31.17;15.77;;;;;;;2.42;88.60;95786.34;5094187;28;20889;-76
2022/11/27 01:00:46;;;;;;;27.60;14.73;;;;;;;2.48;88.47;95797.00;5076429;28;20217;-77
2022/11/27 01:03:11;;;;;;;30.50;15.10;;;;;;;2.41;88.19;95792.50;5094749;28;20177;-77
2022/11/27 01:05:36;;;;;;;27.17;14.27;;;;;;;2.41;87.38;95793.31;5094442;28;20238;-76
2022/11/27 01:08:03;;;;;;;32.67;15.33;;;;;;;2.33;87.45;95784.56;5094585;28;20181;-77
2022/11/27 01:10:28;;;;;;;29.63;13.97;;;;;;;2.41;87.62;95790.72;5094544;28;20627;-78
2022/11/27 01:12:53;;;;;;;35.73;14.97;;;;;;;2.34;87.31;95791.38;5094374;28;20182;-77
2022/11/27 01:15:19;;;;;;;33.70;14.17;;;;;;;2.35;87.17;95790.41;5075900;28;20648;-77
2022/11/27 01:17:45;;;;;;;39.70;16.50;;;;;;;2.33;87.52;95788.00;5074172;28;20190;-77
2022/11/27 01:20:10;;;;;;;29.73;15.20;;;;;;;2.33;87.14;95776.78;5074085;28;20198;-77
2022/11/27 01:22:36;;;;;;;29.83;14.93;;;;;;;2.34;87.10;95776.59;5073892;28;20183;-77
2022/11/27 01:25:01;;;;;;;33.27;15.03;;;;;;;2.33;87.47;95774.19;5087673;28;20295;-76
2022/11/27 01:27:26;;;;;;;28.53;14.67;;;;;;;2.15;87.51;95745.47;5094150;28;20200;-77
2022/11/27 01:29:52;;;;;;;33.07;15.77;;;;;;;2.18;87.66;95752.97;5092023;28;20168;-77
2022/11/27 01:32:17;;;;;;;35.63;16.63;;;;;;;2.33;87.39;95775.00;5075510;28;20240;-78
2022/11/27 01:34:43;;;;;;;34.10;17.17;;;;;;;2.26;87.48;95760.91;5078282;28;20252;-77
2022/11/27 01:37:08;;;;;;;35.07;16.70;;;;;;;2.25;87.32;95769.63;5089103;28;20180;-77
2022/11/27 01:39:33;;;;;;;36.73;16.80;;;;;;;2.15;87.67;95769.66;5073370;28;20285;-76
2022/11/27 01:41:59;;;;;;;46.47;23.55;;;;;;;1.95;88.29;95739.44;5090605;28;20420;-76
2022/11/27 01:44:24;;;;;;;38.20;18.60;;;;;;;2.16;87.89;95760.09;5093130;28;20180;-76
2022/11/27 01:46:58;;;;;;;41.10;19.53;;;;;;;2.11;87.63;95762.28;5092855;28;20440;-76
2022/11/27 01:49:24;;;;;;;47.47;20.70;;;;;;;2.12;88.69;95756.94;5093251;28;20169;-76
2022/11/27 01:51:52;;;;;;;42.17;18.83;;;;;;;2.02;88.06;95735.34;5093561;28;20185;-77
2022/11/27 01:54:20;;;;;;;37.93;17.87;;;;;;;2.12;88.21;95746.56;5093579;28;20181;-77
2022/11/27 01:56:50;;;;;;;35.03;17.20;;;;;;;2.17;87.66;95757.34;5093580;28;20681;-77
2022/11/27 01:59:17;;;;;;;34.23;16.30;;;;;;;2.19;88.07;95755.44;5093349;28;20225;-77
2022/11/27 02:01:43;;;;;;;40.70;18.30;;;;;;;2.17;87.50;95756.53;5088093;28;20265;-76
2022/11/27 02:04:08;;;;;;;34.53;17.33;;;;;;;2.19;88.56;95758.03;5055170;28;20273;-77
2022/11/27 02:06:35;;;;;;;42.03;18.53;;;;;;;2.24;88.73;95757.63;5072950;28;20178;-77
2022/11/27 02:09:00;;;;;;;34.53;16.87;;;;;;;2.18;88.55;95743.41;5085098;28;20264;-76
2022/11/27 02:11:33;;;;;;;36.83;17.43;;;;;;;2.31;88.81;95761.31;5090271;28;20684;-77
2022/11/27 02:13:59;;;;;;;33.40;16.57;;;;;;;2.37;88.99;95752.16;5073112;28;20179;-77
2022/11/27 02:16:47;;;;;;;29.63;15.57;;;;;;;2.39;89.07;95755.44;5072855;28;20244;-76
2022/11/27 02:19:24;;;;;;;32.77;15.70;;;;;;;2.45;89.63;95758.28;5074294;28;20202;-77
2022/11/27 02:22:02;;;;;;;32.00;15.40;;;;;;;2.46;89.55;95757.34;5092947;28;20181;-77
2022/11/27 02:24:55;;;;;;;39.13;19.88;;;;;;;2.51;90.06;95757.72;5091354;28;20400;-77
2022/11/27 02:27:33;;;;;;;32.40;16.30;;;;;;;2.56;89.99;95763.34;5080348;28;20213;-77
2022/11/27 02:30:04;;;;;;;31.47;15.77;;;;;;;2.65;89.50;95759.91;5061619;28;20564;-76
2022/11/27 02:32:41;;;;;;;32.63;15.40;;;;;;;2.73;89.91;95766.19;5091841;28;20181;-76
2022/11/27 02:35:15;;;;;;;30.67;15.30;;;;;;;2.74;89.40;95760.03;5078518;28;20209;-76
2022/11/27 02:37:56;;;;;;;32.83;16.67;;;;;;;2.65;89.67;95757.31;5079280;28;20556;-76
2022/11/27 02:40:40;;;;;;;36.77;17.80;;;;;;;2.67;89.97;95769.34;5065525;28;20213;-77
2022/11/27 02:43:11;;;;;;;33.43;17.97;;;;;;;2.65;89.94;95765.09;5072229;28;20190;-76
2022/11/27 02:45:43;;;;;;;30.97;15.23;;;;;;;2.72;90.04;95769.75;5072140;28;20226;-77
2022/11/27 02:48:11;;;;;;;27.20;14.10;;;;;;;2.73;89.88;95764.41;5072419;28;20182;-77
2022/11/27 02:50:40;;;;;;;34.27;16.00;;;;;;;2.65;90.56;95743.50;5072317;28;20175;-77
2022/11/27 02:53:11;;;;;;;29.13;15.60;;;;;;;2.79;90.71;95760.41;5072212;28;20178;-77
2022/11/27 02:55:39;;;;;;;30.50;14.50;;;;;;;2.84;90.59;95772.03;5072016;28;20178;-76
2022/11/27 02:58:09;;;;;;;31.13;15.23;;;;;;;2.82;90.70;95773.97;5071968;28;20174;-76
2022/11/27 03:00:36;;;;;;;27.70;13.67;;;;;;;2.89;90.71;95769.84;5071857;28;20214;-76
2022/11/27 03:03:07;;;;;;;29.07;14.97;;;;;;;2.89;90.60;95758.59;5072155;28;20186;-76
2022/11/27 03:05:37;;;;;;;31.92;16.40;;;;;;;2.80;90.75;95747.28;5079369;28;20401;-76
2022/11/27 03:08:12;;;;;;;29.13;13.87;;;;;;;2.89;90.83;95763.81;5081343;28;20170;-76
2022/11/27 03:10:49;;;;;;;30.10;14.53;;;;;;;2.89;90.70;95775.03;5071791;28;20174;-76
2022/11/27 03:13:15;;;;;;;26.90;14.20;;;;;;;2.95;90.87;95773.63;5090222;28;20572;-76
2022/11/27 03:16:07;;;;;;;31.73;15.77;;;;;;;3.00;90.45;95776.66;5092131;28;20182;-76
2022/11/27 03:19:00;;;;;;;28.67;14.30;;;;;;;3.03;90.27;95779.78;5091884;28;20635;-75
2022/11/27 03:21:33;;;;;;;29.63;13.03;;;;;;;2.90;90.23;95760.25;5076942;28;20182;-76
2022/11/27 03:23:59;;;;;;;90.47;40.67;;;;;;;2.97;90.47;95779.53;5071293;28;20232;-76
2022/11/27 03:26:25;;;;;;;42.47;19.03;;;;;;;3.10;91.48;95789.63;5071370;28;20170;-76
2022/11/27 03:28:52;;;;;;;29.07;14.10;;;;;;;3.15;90.66;95785.63;5053346;28;20611;-77
2022/11/27 03:31:19;;;;;;;32.20;15.13;;;;;;;3.07;90.08;95777.72;5087861;28;20189;-76
2022/11/27 03:33:44;;;;;;;30.87;13.97;;;;;;;2.96;89.99;95759.69;5091656;28;20269;-76
2022/11/27 03:36:13;;;;;;;48.07;17.00;;;;;;;3.05;89.96;95779.63;5088516;28;20257;-76
2022/11/27 03:38:38;;;;;;;33.70;16.93;;;;;;;3.00;90.13;95777.47;5071502;28;20171;-76
2022/11/27 03:41:17;;;;;;;33.47;16.33;;;;;;;3.00;90.08;95782.69;5088402;28;20224;-76
2022/11/27 03:44:00;;;;;;;36.13;18.27;;;;;;;2.98;89.85;95778.56;5063461;28;20248;-77
2022/11/27 03:46:52;;;;;;;40.77;17.93;;;;;;;2.88;90.33;95768.19;5071244;28;20238;-76
2022/11/27 03:50:05;;;;;;;35.53;17.77;;;;;;;3.03;90.17;95777.16;5071282;28;20174;-76
2022/11/27 03:52:55;;;;;;;37.57;17.77;;;;;;;3.09;89.90;95778.41;4989755;28;20205;-75
2022/11/27 03:55:32;;;;;;;42.60;19.07;;;;;;;3.09;89.66;95775.81;5080011;28;20182;-75
2022/11/27 03:58:07;;;;;;;40.57;19.20;;;;;;;3.11;89.82;95779.09;5070959;28;20648;-77
2022/11/27 04:00:37;;;;;;;45.00;20.23;;;;;;;3.04;89.83;95754.59;5070692;28;20248;-76
2022/11/27 04:03:04;;;;;;;44.80;20.77;;;;;;;3.13;89.91;95765.91;5056124;28;20178;-77
2022/11/27 04:05:29;;;;;;;44.87;21.47;;;;;;;3.03;90.01;95768.53;5076698;28;20178;-77
2022/11/27 04:07:55;;;;;;;46.27;22.53;;;;;;;3.05;89.89;95771.84;5070594;28;20186;-75
2022/11/27 04:10:20;;;;;;;44.07;22.87;;;;;;;3.00;89.65;95767.06;5070889;28;20179;-75
2022/11/27 04:12:46;;;;;;;49.13;21.97;;;;;;;3.04;89.54;95758.00;5070679;28;20572;-75
2022/11/27 04:15:12;;;;;;;45.87;23.03;;;;;;;2.86;89.47;95727.69;5076440;28;20261;-76
2022/11/27 04:17:37;;;;;;;47.23;22.80;;;;;;;2.94;89.09;95746.81;5091360;28;20178;-75
2022/11/27 04:20:04;;;;;;;47.90;23.40;;;;;;;2.91;89.87;95754.09;5091134;28;20755;-76
2022/11/27 04:22:29;;;;;;;46.93;21.97;;;;;;;2.90;89.83;95760.25;5087316;28;20567;-75
2022/11/27 04:24:55;;;;;;;43.83;21.90;;;;;;;2.91;89.91;95759.28;5076653;28;20174;-76
2022/11/27 04:27:20;;;;;;;44.10;21.57;;;;;;;2.88;89.12;95738.78;5090539;28;20223;-76
2022/11/27 04:29:46;;;;;;;43.73;20.40;;;;;;;2.93;88.86;95759.97;5090826;28;20537;-76
2022/11/27 04:32:11;;;;;;;35.60;17.73;;;;;;;2.91;89.43;95760.13;5070809;28;20193;-76
2022/11/27 04:34:36;;;;;;;31.47;17.03;;;;;;;2.84;89.35;95760.81;5070475;28;20228;-76
2022/11/27 04:37:02;;;;;;;34.27;17.77;;;;;;;2.76;89.67;95764.13;5070604;28;20185;-76
2022/11/27 04:39:27;;;;;;;37.37;16.77;;;;;;;2.79;89.88;95766.44;5079616;28;20194;-76
2022/11/27 04:41:53;;;;;;;31.33;15.50;;;;;;;2.86;90.08;95774.47;5070582;28;20288;-76
2022/11/27 04:44:21;;;;;;;32.35;17.08;;;;;;;2.79;90.05;95773.41;5070149;28;20780;-76
2022/11/27 04:46:47;;;;;;;31.67;16.33;;;;;;;2.73;90.59;95766.19;5079451;28;20729;-76
2022/11/27 04:49:13;;;;;;;34.67;17.80;;;;;;;2.84;90.60;95781.63;5070603;28;20178;-77
2022/11/27 04:51:38;;;;;;;30.73;15.80;;;;;;;2.89;90.23;95779.41;5075217;28;20264;-77
2022/11/27 04:54:04;;;;;;;35.87;16.90;;;;;;;2.88;89.69;95776.00;5075059;28;20224;-77
2022/11/27 04:56:29;;;;;;;35.87;18.63;;;;;;;2.92;90.19;95786.94;5070732;28;20186;-77
2022/11/27 04:58:54;;;;;;;34.67;17.57;;;;;;;2.96;90.38;95781.31;5070580;28;20187;-76
2022/11/27 05:01:20;;;;;;;34.80;19.33;;;;;;;3.00;90.04;95774.88;5070725;28;20630;-77
2022/11/27 05:03:46;;;;;;;36.50;18.73;;;;;;;2.99;89.91;95782.81;5077283;28;20177;-77
2022/11/27 05:06:12;;;;;;;36.97;20.57;;;;;;;2.76;89.71;95742.50;5081579;28;20217;-77
2022/11/27 05:08:37;;;;;;;44.33;21.37;;;;;;;2.89;90.50;95769.00;5071524;28;20245;-77
2022/11/27 05:11:06;;;;;;;52.53;24.67;;;;;;;2.95;90.65;95768.44;5085308;28;20176;-77
2022/11/27 05:13:32;;;;;;;54.43;27.57;;;;;;;2.98;90.45;95766.38;5091675;28;20601;-77
2022/11/27 05:15:57;;;;;;;64.13;28.33;;;;;;;2.93;90.15;95759.97;5072475;28;20174;-77
2022/11/27 05:18:23;;;;;;;49.60;26.20;;;;;;;2.97;90.51;95767.34;5080251;28;20174;-77
2022/11/27 05:20:59;;;;;;;55.80;24.90;;;;;;;3.07;89.90;95769.09;5074151;28;20198;-77
2022/11/27 05:23:26;;;;;;;48.77;25.13;;;;;;;2.76;90.08;95732.13;5073774;28;20268;-77
2022/11/27 05:25:52;;;;;;;47.90;24.10;;;;;;;2.98;90.31;95782.00;5074125;28;20186;-76
2022/11/27 05:28:18;;;;;;;50.93;25.13;;;;;;;2.77;90.00;95747.56;5056388;28;20699;-77
2022/11/27 05:30:45;;;;;;;48.53;24.67;;;;;;;2.98;90.71;95778.56;5074048;28;20660;-77
2022/11/27 05:33:10;;;;;;;52.58;27.13;;;;;;;3.06;90.04;95785.66;5073574;28;20441;-77
2022/11/27 05:35:36;;;;;;;50.30;26.63;;;;;;;3.00;90.03;95792.25;5073549;28;20225;-76
2022/11/27 05:38:01;;;;;;;49.33;24.73;;;;;;;2.93;90.47;95786.81;5073493;28;20736;-76
2022/11/27 05:40:27;;;;;;;54.30;25.27;;;;;;;2.90;90.33;95781.06;5081678;28;20209;-76
2022/11/27 05:42:52;;;;;;;57.97;26.13;;;;;;;2.91;90.52;95793.91;5078174;28;20175;-76
2022/11/27 05:45:17;;;;;;;48.97;25.13;;;;;;;2.96;90.09;95794.31;5073409;28;20710;-76
2022/11/27 05:47:43;;;;;;;59.67;28.97;;;;;;;2.93;89.87;95801.59;5079130;28;20181;-76
2022/11/27 05:50:08;;;;;;;64.50;29.30;;;;;;;2.80;90.13;95785.44;5093646;28;20169;-76
2022/11/27 05:52:34;;;;;;;62.57;29.97;;;;;;;2.89;90.67;95790.63;5093471;28;20181;-76
2022/11/27 05:54:59;;;;;;;74.37;31.60;;;;;;;2.91;90.29;95785.28;5093468;28;20324;-76
2022/11/27 05:57:25;;;;;;;86.43;37.33;;;;;;;2.83;90.32;95785.19;5075625;28;20546;-76
2022/11/27 05:59:50;;;;;;;89.18;36.35;;;;;;;2.89;90.67;95792.41;5093336;28;20493;-76
2022/11/27 06:02:16;;;;;;;73.03;30.17;;;;;;;2.89;90.28;95800.22;5093332;28;20173;-76
2022/11/27 06:04:41;;;;;;;87.70;33.70;;;;;;;2.94;90.96;95803.22;5087574;28;20185;-76
2022/11/27 06:07:07;;;;;;;84.17;34.13;;;;;;;3.00;90.88;95797.47;5072501;28;20420;-76
2022/11/27 06:09:32;;;;;;;75.37;31.70;;;;;;;3.02;90.59;95795.53;5081290;28;20647;-75
2022/11/27 06:11:57;;;;;;;67.83;30.13;;;;;;;3.02;90.67;95805.94;5093001;28;20230;-76
2022/11/27 06:14:23;;;;;;;67.63;28.83;;;;;;;3.00;90.62;95811.28;5093289;28;20174;-75
2022/11/27 06:16:48;;;;;;;68.67;26.57;;;;;;;2.94;90.39;95790.22;5079899;28;20182;-77
2022/11/27 06:19:14;;;;;;;65.40;26.60;;;;;;;3.04;90.47;95804.81;5073027;28;20199;-76
2022/11/27 06:21:39;;;;;;;61.63;25.77;;;;;;;3.15;90.65;95808.22;5072649;28;20178;-76
2022/11/27 06:24:05;;;;;;;64.37;27.50;;;;;;;2.99;90.79;95788.00;5072224;28;20182;-77
2022/11/27 06:26:31;;;;;;;72.70;30.23;;;;;;;3.08;90.53;95794.97;5073541;28;20667;-76
2022/11/27 06:28:59;;;;;;;59.40;27.52;;;;;;;3.23;90.59;95809.16;5091836;28;20892;-75
2022/11/27 06:31:26;;;;;;;50.80;24.77;;;;;;;3.13;90.76;95786.72;5092359;28;20192;-75
2022/11/27 06:33:53;;;;;;;44.77;21.47;;;;;;;3.22;90.81;95789.28;5092776;28;20178;-76
2022/11/27 06:36:20;;;;;;;48.63;21.70;;;;;;;3.27;91.00;95792.31;5083671;28;20195;-75
2022/11/27 06:38:45;;;;;;;42.53;20.30;;;;;;;3.44;91.13;95814.16;5092582;28;20560;-76
2022/11/27 06:41:16;;;;;;;40.20;19.63;;;;;;;3.35;90.89;95797.63;5092632;28;20212;-76
2022/11/27 06:43:42;;;;;;;41.07;18.10;;;;;;;3.54;90.56;95811.50;5092632;28;20173;-76
2022/11/27 06:46:14;;;;;;;47.80;19.13;;;;;;;3.57;90.28;95819.84;5092525;28;20226;-76
2022/11/27 06:48:39;;;;;;;46.73;20.23;;;;;;;3.60;90.26;95816.94;5063488;28;20182;-76
2022/11/27 06:51:06;;;;;;;45.93;19.23;;;;;;;3.58;90.06;95816.28;5072175;28;20261;-77
2022/11/27 06:53:34;;;;;;;39.70;17.07;;;;;;;3.60;89.79;95821.34;5072114;28;20637;-76
2022/11/27 06:56:05;;;;;;;33.13;16.27;;;;;;;3.64;90.14;95814.88;5072284;28;20251;-75
2022/11/27 06:58:30;;;;;;;33.60;15.40;;;;;;;3.68;89.74;95808.41;5072116;28;20725;-76
2022/11/27 07:00:57;;;;;;;30.40;15.93;;;;;;;3.73;89.62;95809.63;5054237;28;20234;-76
2022/11/27 07:03:23;;;;;;;30.93;15.47;;;;;;;3.77;89.22;95812.75;5071751;28;20221;-75
2022/11/27 07:05:48;;;;;;;27.90;16.03;;;;;;;3.82;88.82;95814.91;5071506;28;20261;-76
2022/11/27 07:08:14;;;;;;;28.97;14.30;;;;;;;3.87;88.36;95820.53;5071544;28;20200;-74
2022/11/27 07:10:39;;;;;;;27.93;14.50;;;;;;;3.88;88.29;95814.34;5071642;28;20167;-74
2022/11/27 07:13:05;;;;;;;27.23;14.17;;;;;;;3.86;87.91;95790.22;5071559;28;20736;-74
2022/11/27 07:15:31;;;;;;;28.33;13.93;;;;;;;3.93;87.40;95806.91;5071285;28;20265;-74
2022/11/27 07:17:56;;;;;;;27.17;13.37;;;;;;;3.71;87.50;95751.69;5071519;28;20174;-76
2022/11/27 07:20:22;;;;;;;26.87;13.13;;;;;;;4.06;86.87;95803.00;5071333;28;20679;-74
2022/11/27 07:22:47;;;;;;;23.13;12.67;;;;;;;4.12;86.01;95802.41;5071474;28;20189;-76
2022/11/27 07:25:13;;;;;;;26.67;13.53;;;;;;;4.17;85.64;95805.38;5071535;28;20189;-76
2022/11/27 07:27:38;;;;;;;26.10;12.60;;;;;;;4.16;84.51;95803.72;5075924;28;20177;-76
2022/11/27 07:30:04;;;;;;;24.50;14.03;;;;;;;4.32;84.33;95810.09;5091478;28;20651;-76
2022/11/27 07:32:30;;;;;;;27.37;13.90;;;;;;;4.27;83.96;95810.50;5091038;28;20178;-76
2022/11/27 07:34:56;;;;;;;22.60;13.97;;;;;;;4.34;84.69;95803.72;5061463;28;20186;-74
2022/11/27 07:37:21;;;;;;;35.50;16.57;;;;;;;4.27;84.61;95786.25;5069857;28;20236;-76
2022/11/27 07:39:46;;;;;;;32.10;15.60;;;;;;;4.43;84.84;95805.44;5070126;28;20301;-76
2022/11/27 07:42:12;;;;;;;33.57;15.10;;;;;;;4.48;85.01;95805.00;5087920;28;20192;-76
2022/11/27 07:44:37;;;;;;;29.67;15.70;;;;;;;4.55;84.84;95803.44;5089702;28;20177;-75
2022/11/27 07:47:03;;;;;;;29.67;15.93;;;;;;;4.63;84.99;95810.50;5090275;28;20221;-74
2022/11/27 07:49:28;;;;;;;34.07;16.10;;;;;;;4.57;84.25;95790.25;5091090;28;20208;-75
2022/11/27 07:51:53;;;;;;;27.33;14.50;;;;;;;4.71;84.20;95805.34;5090959;28;20728;-75
2022/11/27 07:54:19;;;;;;;44.07;17.17;;;;;;;4.73;84.06;95806.84;5091128;28;20173;-75
2022/11/27 07:56:44;;;;;;;33.00;16.93;;;;;;;4.80;83.76;95807.06;5091421;28;20184;-76
2022/11/27 07:59:10;;;;;;;32.93;16.10;;;;;;;4.81;83.98;95788.66;5091053;28;20182;-75
2022/11/27 08:01:35;;;;;;;29.53;16.30;;;;;;;4.92;83.78;95796.25;5090856;28;20554;-75
2022/11/27 08:04:00;;;;;;;34.40;15.57;;;;;;;4.96;83.39;95798.53;5090822;28;20231;-75
2022/11/27 08:06:26;;;;;;;28.43;15.77;;;;;;;4.88;82.26;95786.25;5091098;28;20205;-75
2022/11/27 08:08:55;;;;;;;34.33;16.20;;;;;;;5.00;82.73;95802.47;5090976;28;20198;-75
2022/11/27 08:11:22;;;;;;;35.30;16.30;;;;;;;4.96;81.40;95806.34;5090799;28;20177;-75
2022/11/27 08:13:48;;;;;;;31.17;15.60;;;;;;;4.81;81.76;95801.69;5090664;28;20174;-75
2022/11/27 08:16:14;;;;;;;29.40;15.40;;;;;;;4.81;82.81;95795.66;5090663;28;20261;-75
2022/11/27 08:18:39;;;;;;;33.87;16.40;;;;;;;4.87;82.10;95808.91;5090443;28;20238;-75
2022/11/27 08:21:05;;;;;;;36.83;17.27;;;;;;;4.80;82.61;95801.84;5080374;28;20213;-75
2022/11/27 08:23:31;;;;;;;33.53;17.10;;;;;;;4.77;82.78;95808.16;5070457;28;20178;-75
2022/11/27 08:25:56;;;;;;;33.27;15.50;;;;;;;4.76;82.97;95797.88;5075999;28;20174;-75
2022/11/27 08:28:21;;;;;;;31.73;16.23;;;;;;;4.86;83.17;95801.22;5090453;28;20196;-75
2022/11/27 08:30:57;;;;;;;35.43;19.07;;;;;;;4.90;82.71;95798.19;5090328;28;20181;-75
2022/11/27 08:33:23;;;;;;;30.27;16.00;;;;;;;5.02;82.64;95797.91;5090814;28;20181;-75
2022/11/27 08:35:49;;;;;;;31.80;15.57;;;;;;;5.14;81.88;95799.31;5090515;28;20737;-75
2022/11/27 08:38:14;;;;;;;30.03;16.37;;;;;;;5.14;81.49;95804.50;5090392;28;20208;-75
2022/11/27 08:40:40;;;;;;;31.73;15.90;;;;;;;5.09;81.43;95794.56;5090344;28;20198;-75
2022/11/27 08:43:05;;;;;;;27.97;15.70;;;;;;;5.02;81.48;95795.28;5090347;28;20694;-75
2022/11/27 08:45:31;;;;;;;27.30;15.70;;;;;;;5.05;82.23;95790.59;5090020;28;20221;-75
2022/11/27 08:47:57;;;;;;;33.30;16.50;;;;;;;5.13;82.43;95789.81;5090288;28;20173;-75
2022/11/27 08:50:23;;;;;;;31.87;16.50;;;;;;;5.13;82.32;95788.03;5090404;28;20178;-75
2022/11/27 08:52:48;;;;;;;29.70;15.90;;;;;;;5.03;82.26;95756.00;5090414;28;20215;-75
2022/11/27 08:55:14;;;;;;;34.07;17.33;;;;;;;5.23;81.81;95786.16;5092711;28;20263;-75
2022/11/27 08:57:39;;;;;;;31.10;17.07;;;;;;;5.28;82.23;95773.44;5094203;28;20200;-75
2022/11/27 09:00:05;;;;;;;30.57;17.70;;;;;;;5.16;81.42;95776.47;5094516;28;21109;-75
2022/11/27 09:02:33;;;;;;;39.23;19.40;;;;;;;4.63;82.14;95768.78;5094090;28;20319;-75
2022/11/27 09:04:58;;;;;;;37.27;17.27;;;;;;;4.45;83.42;95755.78;5094495;28;20174;-75
2022/11/27 09:07:24;;;;;;;35.03;18.40;;;;;;;4.71;84.19;95772.28;5074433;28;20538;-75
2022/11/27 09:09:49;;;;;;;31.03;16.93;;;;;;;4.92;83.11;95775.38;5073956;28;20167;-74
2022/11/27 09:12:15;;;;;;;29.97;16.37;;;;;;;5.03;82.28;95769.06;5073670;28;20246;-75
2022/11/27 09:14:40;;;;;;;33.67;17.53;;;;;;;5.25;81.79;95780.78;5073685;28;20178;-75
2022/11/27 09:17:05;;;;;;;33.10;17.73;;;;;;;5.33;81.84;95762.53;5092682;28;20667;-75
2022/11/27 09:19:31;;;;;;;30.67;17.33;;;;;;;5.57;80.86;95774.88;5093821;28;20193;-75
2022/11/27 09:21:56;;;;;;;35.87;17.50;;;;;;;5.71;80.50;95771.66;5093710;28;20178;-75
2022/11/27 09:24:22;;;;;;;35.87;18.40;;;;;;;5.81;80.63;95761.09;5093681;28;20272;-75
2022/11/27 09:26:47;;;;;;;41.87;20.87;;;;;;;5.69;80.07;95758.78;5093650;28;20682;-75
2022/11/27 09:29:13;;;;;;;53.77;25.93;;;;;;;5.64;81.03;95753.19;5093929;28;20174;-74
2022/11/27 09:31:38;;;;;;;45.83;21.90;;;;;;;5.71;81.51;95755.19;5093798;28;20177;-75
2022/11/27 09:34:04;;;;;;;40.90;19.07;;;;;;;5.76;80.67;95755.53;5086092;28;20174;-75
2022/11/27 09:36:30;;;;;;;37.70;19.40;;;;;;;5.54;79.95;95723.78;5073319;28;20201;-75
2022/11/27 09:38:57;;;;;;;41.80;22.10;;;;;;;5.71;80.31;95734.31;5055499;28;20214;-75
2022/11/27 09:41:35;;;;;;;39.70;20.50;;;;;;;5.95;80.79;95753.50;5073529;28;21105;-75
2022/11/27 09:44:05;;;;;;;39.30;20.47;;;;;;;6.12;80.72;95750.91;5055438;28;20589;-75
2022/11/27 09:46:35;;;;;;;38.97;21.23;;;;;;;6.19;79.70;95747.47;5073237;28;20224;-75
2022/11/27 09:49:06;;;;;;;33.63;18.50;;;;;;;6.28;78.87;95732.63;5073027;28;20679;-76
2022/11/27 09:51:56;;;;;;;34.10;17.77;;;;;;;6.41;76.99;95730.31;5076235;28;20975;-76
2022/11/27 09:54:39;;;;;;;34.33;17.13;;;;;;;6.68;76.69;95743.06;5036992;28;20209;-76
2022/11/27 09:57:06;;;;;;;34.40;18.20;;;;;;;6.85;77.11;95736.03;5071816;28;20319;-76
2022/11/27 09:59:52;;;;;;;30.63;16.77;;;;;;;6.93;75.74;95724.72;5076379;28;20259;-76
2022/11/27 10:02:30;;;;;;;29.10;15.83;;;;;;;7.01;76.05;95724.69;5076029;28;20546;-76
2022/11/27 10:04:58;;;;;;;31.87;18.43;;;;;;;6.97;74.58;95721.63;5081611;28;20178;-76
2022/11/27 10:07:42;;;;;;;35.87;19.13;;;;;;;6.95;75.14;95720.97;5073533;28;20193;-77
2022/11/27 10:10:08;;;;;;;29.63;16.90;;;;;;;7.01;75.44;95719.47;5087839;28;20182;-77
2022/11/27 10:12:50;;;;;;;31.03;18.37;;;;;;;7.11;75.71;95715.69;5080160;28;20174;-76
2022/11/27 10:15:31;;;;;;;30.50;17.87;;;;;;;7.03;74.56;95700.00;5076950;28;20666;-77
2022/11/27 10:18:17;;;;;;;37.00;19.27;;;;;;;7.17;75.19;95709.78;5092679;28;20205;-77
2022/11/27 10:20:52;;;;;;;37.77;21.10;;;;;;;7.28;75.08;95702.53;5083183;28;20202;-76
2022/11/27 10:23:23;;;;;;;34.30;17.87;;;;;;;7.32;73.11;95712.53;5073180;28;20178;-76
2022/11/27 10:25:53;;;;;;;34.57;18.47;;;;;;;7.32;73.45;95696.00;5069830;28;20265;-76
2022/11/27 10:28:26;;;;;;;36.83;17.33;;;;;;;7.29;73.14;95683.22;5071342;28;20667;-76
2022/11/27 10:31:18;;;;;;;32.67;18.03;;;;;;;7.29;72.90;95664.91;5067544;28;20172;-76
2022/11/27 10:33:53;;;;;;;31.23;16.57;;;;;;;7.49;73.21;95679.22;5053644;28;20277;-76
2022/11/27 10:36:44;;;;;;;35.97;18.73;;;;;;;7.59;71.66;95677.22;5090573;28;20169;-76
2022/11/27 10:39:34;;;;;;;38.97;18.10;;;;;;;7.65;71.94;95679.13;5083559;28;20190;-77
2022/11/27 10:42:09;;;;;;;37.47;19.73;;;;;;;7.58;71.30;95660.66;5074672;28;20184;-76
2022/11/27 10:44:42;;;;;;;37.70;18.23;;;;;;;7.68;70.49;95670.13;5078520;28;20639;-76
2022/11/27 10:47:11;;;;;;;31.13;16.40;;;;;;;7.54;70.38;95669.03;5057082;28;20222;-75
2022/11/27 10:49:39;;;;;;;30.47;17.83;;;;;;;7.50;71.10;95670.38;5074678;28;20186;-75
2022/11/27 10:52:13;;;;;;;31.27;16.60;;;;;;;7.41;70.90;95664.34;5092827;28;20181;-75
2022/11/27 10:54:40;;;;;;;36.43;16.33;;;;;;;7.34;70.95;95658.19;5092043;28;20191;-76
2022/11/27 10:57:29;;;;;;;29.77;15.63;;;;;;;7.37;71.00;95673.53;5073952;28;20251;-76
2022/11/27 11:00:09;;;;;;;25.73;14.83;;;;;;;7.25;71.36;95664.44;5091882;28;20210;-75
2022/11/27 11:02:37;;;;;;;27.60;15.23;;;;;;;7.12;71.89;95654.50;5092246;28;20955;-75
2022/11/27 11:05:20;;;;;;;30.77;15.63;;;;;;;7.11;71.54;95652.03;5078863;28;20233;-77
2022/11/27 11:08:01;;;;;;;33.23;16.00;;;;;;;7.16;71.18;95655.81;5086107;28;20202;-79
2022/11/27 11:10:55;;;;;;;29.10;15.17;;;;;;;7.04;72.08;95654.53;5087123;28;20172;-79
2022/11/27 11:13:26;;;;;;;32.23;15.37;;;;;;;7.13;72.46;95657.94;5074291;28;20190;-77
2022/11/27 11:15:58;;;;;;;30.10;16.93;;;;;;;7.19;72.26;95649.38;5052871;28;20201;-77
2022/11/27 11:18:30;;;;;;;30.97;15.80;;;;;;;7.27;71.68;95653.75;5066099;28;20213;-77
2022/11/27 11:20:58;;;;;;;30.50;15.70;;;;;;;7.31;72.31;95641.97;5056299;28;20741;-77
2022/11/27 11:23:48;;;;;;;27.73;14.30;;;;;;;7.26;71.05;95639.06;5073423;28;20178;-77
2022/11/27 11:26:20;;;;;;;25.90;14.37;;;;;;;7.23;71.37;95639.41;5067384;28;20609;-75
2022/11/27 11:28:51;;;;;;;26.87;13.20;;;;;;;7.20;71.99;95630.88;5068142;28;20178;-77
2022/11/27 11:31:27;;;;;;;29.03;14.50;;;;;;;7.25;71.15;95629.56;5089141;28;20239;-77
2022/11/27 11:33:59;;;;;;;26.73;12.53;;;;;;;7.17;70.70;95625.19;5087400;28;20182;-78